Weather at Sumburgh Airport

Public forecast

Using degrees Celsius for public forecast. Weather courtesy of forecast.io.

Current aviation weather report (METAR) for Sumburgh Airport

2024/04/16 17:50 (retrieved 36 minutes ago)

EGPB 161750Z 25021KT 8000 -SHRA FEW009 SCT013 BKN020 05/03 Q1005 RERA TEMPO SHRA BKN013

Closest aviation forecast (TAF) to Sumburgh Airport

Closest forecast is Oseberg A Platform, 128.4 nm (237.8 km) ENE.

2024/04/16 18:36 (retrieved 0 seconds ago)

TAF ENOA 161700Z 1618/1718 30012KT 9999 FEW020 SCT030 PROB30 TEMPO 1618/1704 SHRA BKN014 FEW020CB BECMG 1618/1620 VRB08KT BECMG 1623/1701 01015KT BECMG 1703/1705 02030KT